Time;durP1;ratioP1;P1;durP2;ratioP2;P2;SDS_P1;SDS_P2;PMS_P1;PMS_P2;Temp;Humidity;BMP_temperature;BMP_pressure;BME280_temperature;BME280_humidity;BME280_pressure;Samples;Min_cycle;Max_cycle;Signal;HPM_P1;HPM_P2
2021/11/05 00:01:24;;;;;;;24.02;15.02;;;;;;;10.68;72.78;95631.81;5028069;28;20061;-74
2021/11/05 00:03:49;;;;;;;24.58;15.30;;;;;;;10.66;73.20;95631.16;5048561;28;20040;-74
2021/11/05 00:06:15;;;;;;;29.25;15.88;;;;;;;10.68;72.89;95625.59;5047097;28;20048;-74
2021/11/05 00:08:41;;;;;;;24.70;15.25;;;;;;;10.71;72.60;95626.09;5048406;28;20427;-74
2021/11/05 00:11:06;;;;;;;25.40;15.80;;;;;;;10.69;73.23;95619.25;5047578;28;20029;-74
2021/11/05 00:13:31;;;;;;;28.40;14.93;;;;;;;10.69;73.08;95630.00;5046375;28;20036;-74
2021/11/05 00:15:57;;;;;;;28.45;15.55;;;;;;;10.81;72.96;95630.44;5047771;28;20051;-75
2021/11/05 00:18:22;;;;;;;26.48;15.55;;;;;;;10.87;71.13;95621.69;5047100;28;20033;-75
2021/11/05 00:20:48;;;;;;;33.97;19.17;;;;;;;10.82;71.62;95616.00;5046535;28;20025;-74
2021/11/05 00:23:15;;;;;;;41.58;21.08;;;;;;;10.74;72.47;95628.44;5047136;28;20021;-75
2021/11/05 00:25:40;;;;;;;34.22;17.63;;;;;;;10.65;72.49;95621.44;5033122;28;20037;-75
2021/11/05 00:28:06;;;;;;;44.85;22.65;;;;;;;10.55;72.24;95616.28;5027189;28;20021;-75
2021/11/05 00:30:31;;;;;;;41.95;19.67;;;;;;;10.56;72.54;95622.47;5026346;28;20508;-74
2021/11/05 00:32:57;;;;;;;42.05;22.08;;;;;;;10.49;72.69;95623.13;5026174;28;20546;-74
2021/11/05 00:35:22;;;;;;;44.47;22.10;;;;;;;10.55;73.06;95615.44;5027092;28;20025;-74
2021/11/05 00:37:47;;;;;;;37.50;19.85;;;;;;;10.50;73.94;95614.09;5032429;28;20017;-74
2021/11/05 00:40:13;;;;;;;40.35;19.08;;;;;;;10.53;74.38;95614.78;5046711;28;20841;-73
2021/11/05 00:42:39;;;;;;;39.28;20.63;;;;;;;10.53;74.18;95609.41;5046132;28;20114;-75
2021/11/05 00:45:05;;;;;;;37.63;19.65;;;;;;;10.57;73.86;95610.72;5046503;28;20036;-74
2021/11/05 00:47:30;;;;;;;32.22;18.42;;;;;;;10.58;73.25;95598.97;5045691;28;20021;-74
2021/11/05 00:49:56;;;;;;;36.55;19.48;;;;;;;10.54;72.85;95603.03;5045909;28;20031;-74
2021/11/05 00:52:21;;;;;;;39.72;20.23;;;;;;;10.51;73.49;95601.53;5046863;28;20377;-74
2021/11/05 00:54:47;;;;;;;39.33;20.00;;;;;;;10.51;74.55;95612.28;5044292;28;20762;-75
2021/11/05 00:57:12;;;;;;;45.03;21.75;;;;;;;10.48;74.34;95605.38;5046695;28;20036;-74
2021/11/05 00:59:40;;;;;;;52.45;23.60;;;;;;;10.48;73.65;95608.06;5045622;28;20511;-74
2021/11/05 01:02:06;;;;;;;47.33;24.73;;;;;;;10.48;73.60;95613.44;5046194;28;20159;-75
2021/11/05 01:04:32;;;;;;;42.20;21.33;;;;;;;10.42;73.89;95608.72;5029438;28;20096;-75
2021/11/05 01:06:58;;;;;;;37.85;19.73;;;;;;;10.34;73.20;95604.22;5044960;28;20074;-75
2021/11/05 01:09:23;;;;;;;32.95;19.13;;;;;;;10.27;73.16;95601.38;5045423;28;20527;-75
2021/11/05 01:11:48;;;;;;;33.33;18.02;;;;;;;10.23;73.26;95605.44;5045040;28;20484;-75
2021/11/05 01:14:14;;;;;;;30.73;17.95;;;;;;;10.16;71.63;95604.44;5045563;28;20146;-75
2021/11/05 01:16:39;;;;;;;29.58;17.00;;;;;;;10.06;71.51;95596.56;5045180;28;20408;-74
2021/11/05 01:19:05;;;;;;;30.00;15.85;;;;;;;10.07;70.90;95600.94;5045099;28;20024;-74
2021/11/05 01:21:30;;;;;;;28.95;16.42;;;;;;;10.00;72.72;95605.28;5046686;28;20033;-74
2021/11/05 01:23:56;;;;;;;27.33;16.63;;;;;;;9.93;72.99;95593.59;5045766;28;20029;-74
2021/11/05 01:26:21;;;;;;;30.33;16.60;;;;;;;9.89;72.65;95585.03;5047051;28;20334;-74
2021/11/05 01:28:47;;;;;;;33.42;17.52;;;;;;;9.85;73.55;95592.56;5044506;28;20043;-74
2021/11/05 01:31:12;;;;;;;31.23;16.58;;;;;;;9.85;73.30;95586.41;5045260;28;20040;-75
2021/11/05 01:33:38;;;;;;;33.42;17.73;;;;;;;9.82;73.35;95589.41;5046147;28;20495;-74
2021/11/05 01:36:04;;;;;;;32.85;19.38;;;;;;;9.83;74.39;95573.16;5046344;28;20315;-74
2021/11/05 01:38:29;;;;;;;35.17;19.98;;;;;;;9.88;74.48;95589.53;5046681;28;20491;-74
2021/11/05 01:40:54;;;;;;;38.42;19.80;;;;;;;9.88;74.18;95586.88;5045530;28;20475;-74
2021/11/05 01:43:21;;;;;;;34.72;19.27;;;;;;;9.93;75.82;95588.22;5046804;28;20021;-73
2021/11/05 01:45:48;;;;;;;36.78;19.13;;;;;;;9.96;75.76;95577.16;5045394;28;20484;-74
2021/11/05 01:48:14;;;;;;;28.70;17.80;;;;;;;9.99;76.11;95576.81;5045385;28;20025;-74
2021/11/05 01:50:39;;;;;;;30.40;17.95;;;;;;;9.97;75.67;95579.69;5046202;28;20029;-76
2021/11/05 01:53:06;;;;;;;38.63;17.98;;;;;;;9.98;76.24;95584.00;5044910;28;20017;-74
2021/11/05 01:55:31;;;;;;;34.70;20.50;;;;;;;9.98;75.89;95597.41;5028346;28;20029;-73
2021/11/05 01:57:57;;;;;;;36.70;20.65;;;;;;;10.03;76.12;95594.22;5044458;28;20021;-74
2021/11/05 02:00:24;;;;;;;33.58;19.77;;;;;;;10.07;76.55;95594.72;5046547;28;20415;-75
2021/11/05 02:02:50;;;;;;;33.30;19.80;;;;;;;10.05;75.86;95588.69;5043996;28;20408;-75
2021/11/05 02:05:16;;;;;;;42.70;21.65;;;;;;;10.04;75.25;95582.53;5028830;28;20085;-75
2021/11/05 02:07:52;;;;;;;33.90;20.55;;;;;;;10.02;74.31;95584.53;5044084;28;20515;-74
2021/11/05 02:10:21;;;;;;;32.10;19.45;;;;;;;9.97;74.09;95582.34;5044692;28;20029;-75
2021/11/05 02:12:47;;;;;;;35.75;20.50;;;;;;;9.96;73.84;95577.97;5044616;28;20025;-74
2021/11/05 02:15:14;;;;;;;33.60;20.48;;;;;;;9.95;74.97;95562.91;5045641;28;20089;-74
2021/11/05 02:17:40;;;;;;;37.33;19.90;;;;;;;9.92;74.75;95594.56;5046372;28;20049;-74
2021/11/05 02:20:06;;;;;;;30.77;19.30;;;;;;;9.86;75.97;95569.31;5043625;28;20423;-75
2021/11/05 02:22:31;;;;;;;33.22;18.85;;;;;;;9.76;76.87;95583.72;5031586;28;20072;-75
2021/11/05 02:24:57;;;;;;;30.25;18.42;;;;;;;9.83;75.89;95578.53;5049032;28;20103;-74
2021/11/05 02:27:22;;;;;;;31.98;19.20;;;;;;;9.87;74.82;95581.69;5050198;28;20033;-74
2021/11/05 02:29:48;;;;;;;34.17;19.52;;;;;;;9.86;75.24;95593.41;5049894;28;20025;-74
2021/11/05 02:32:13;;;;;;;29.08;17.42;;;;;;;9.84;75.37;95576.66;5022150;28;20025;-75
2021/11/05 02:34:39;;;;;;;33.65;18.08;;;;;;;9.79;73.53;95587.88;5012170;28;20488;-74
2021/11/05 02:37:05;;;;;;;34.85;18.67;;;;;;;9.81;74.70;95571.66;5029053;28;20024;-74
2021/11/05 02:39:32;;;;;;;30.00;17.92;;;;;;;9.66;74.80;95577.69;5028889;28;20116;-75
2021/11/05 02:41:58;;;;;;;33.20;18.85;;;;;;;9.68;75.68;95577.50;5027560;28;20032;-74
2021/11/05 02:44:23;;;;;;;32.75;18.95;;;;;;;9.75;74.36;95597.28;5028944;28;20025;-74
2021/11/05 02:46:49;;;;;;;34.63;18.88;;;;;;;9.72;74.90;95581.53;5029191;28;20063;-75
2021/11/05 02:49:16;;;;;;;30.73;18.52;;;;;;;9.72;74.25;95589.56;5028097;28;20025;-75
2021/11/05 02:51:42;;;;;;;32.72;19.52;;;;;;;9.67;74.86;95582.06;5028231;28;20025;-76
2021/11/05 02:54:08;;;;;;;36.05;20.05;;;;;;;9.58;75.28;95580.34;5011296;28;20033;-74
2021/11/05 02:56:33;;;;;;;31.38;19.15;;;;;;;9.59;75.02;95587.41;5028479;28;20048;-75
2021/11/05 02:58:59;;;;;;;37.85;21.83;;;;;;;9.58;75.17;95586.56;5028784;28;20025;-75
2021/11/05 03:01:25;;;;;;;35.42;20.52;;;;;;;9.58;76.53;95575.84;5029948;28;20033;-75
2021/11/05 03:03:50;;;;;;;34.08;19.38;;;;;;;9.52;77.16;95587.22;5027642;28;20025;-75
2021/11/05 03:06:15;;;;;;;36.47;21.05;;;;;;;9.59;76.26;95582.03;5028084;28;20066;-74
2021/11/05 03:08:41;;;;;;;32.70;20.65;;;;;;;9.57;76.46;95573.34;5027791;28;20026;-73
2021/11/05 03:11:11;;;;;;;35.13;19.95;;;;;;;9.60;76.52;95583.72;5027397;28;20431;-74
2021/11/05 03:13:37;;;;;;;31.98;18.73;;;;;;;9.68;75.20;95585.53;5029265;28;20030;-75
2021/11/05 03:16:03;;;;;;;31.52;19.13;;;;;;;9.62;76.15;95579.84;5028372;28;20099;-74
2021/11/05 03:18:31;;;;;;;37.72;20.80;;;;;;;9.36;77.18;95582.69;5028204;28;20026;-74
2021/11/05 03:20:56;;;;;;;30.17;17.33;;;;;;;9.49;76.53;95580.38;5026751;28;20041;-75
2021/11/05 03:23:22;;;;;;;33.35;16.55;;;;;;;9.49;77.79;95567.00;5028146;28;20395;-76
2021/11/05 03:25:47;;;;;;;28.90;16.50;;;;;;;9.52;77.26;95585.38;5010774;28;20041;-75
2021/11/05 03:28:13;;;;;;;25.15;15.52;;;;;;;9.62;76.15;95587.06;4994488;28;20037;-76
2021/11/05 03:30:38;;;;;;;27.13;15.10;;;;;;;9.58;76.87;95580.34;5028798;28;20036;-74
2021/11/05 03:33:03;;;;;;;27.05;15.32;;;;;;;9.47;77.33;95589.56;5028123;28;20029;-75
2021/11/05 03:35:29;;;;;;;27.05;15.38;;;;;;;9.54;76.58;95587.06;5028778;28;20068;-75
2021/11/05 03:37:54;;;;;;;28.23;16.48;;;;;;;9.57;76.90;95576.00;5026767;28;20021;-76
2021/11/05 03:40:20;;;;;;;30.58;16.85;;;;;;;9.42;77.02;95589.22;5027888;28;20036;-74
2021/11/05 03:42:48;;;;;;;26.88;15.30;;;;;;;9.50;76.84;95573.16;5028442;28;20021;-74
2021/11/05 03:45:17;;;;;;;27.35;16.10;;;;;;;9.52;77.74;95593.44;5011404;28;20028;-74
2021/11/05 03:47:43;;;;;;;34.33;19.00;;;;;;;9.57;76.37;95594.75;5028306;28;20117;-74
2021/11/05 03:50:08;;;;;;;34.38;18.73;;;;;;;9.50;76.94;95600.78;5028141;28;20030;-75
2021/11/05 03:52:34;;;;;;;42.35;23.88;;;;;;;9.59;76.01;95571.34;5028524;28;20022;-74
2021/11/05 03:54:59;;;;;;;36.97;21.23;;;;;;;9.53;76.57;95596.91;5027802;28;20399;-74
2021/11/05 03:57:25;;;;;;;35.08;19.88;;;;;;;9.58;76.96;95583.88;5028413;28;20095;-74
2021/11/05 03:59:50;;;;;;;39.40;20.40;;;;;;;9.58;76.76;95585.72;5027642;28;20369;-74
2021/11/05 04:02:15;;;;;;;42.25;20.20;;;;;;;9.64;76.19;95593.91;5026995;28;20550;-74
2021/11/05 04:04:41;;;;;;;36.22;19.92;;;;;;;9.46;76.51;95583.34;5026516;28;20642;-74
2021/11/05 04:07:06;;;;;;;38.60;20.38;;;;;;;9.47;76.64;95592.22;5026799;28;20033;-74
2021/11/05 04:09:32;;;;;;;35.78;20.90;;;;;;;9.50;76.83;95578.50;5026630;28;20029;-74
2021/11/05 04:11:57;;;;;;;35.90;19.33;;;;;;;9.48;76.87;95585.91;5027434;28;20408;-75
2021/11/05 04:14:22;;;;;;;32.35;18.60;;;;;;;9.58;76.55;95569.63;5026676;28;20029;-76
2021/11/05 04:16:48;;;;;;;35.25;19.45;;;;;;;9.60;76.42;95565.81;5025974;28;20025;-74
2021/11/05 04:19:13;;;;;;;35.45;18.95;;;;;;;9.61;76.39;95577.34;5028464;28;20040;-74
2021/11/05 04:21:39;;;;;;;39.08;21.77;;;;;;;9.60;75.72;95581.03;5025316;28;20530;-74
2021/11/05 04:24:06;;;;;;;36.78;18.52;;;;;;;9.57;75.87;95557.25;5028206;28;20554;-75
2021/11/05 04:26:32;;;;;;;33.67;19.50;;;;;;;9.54;76.79;95579.03;5025911;28;20036;-76
2021/11/05 04:28:57;;;;;;;29.85;18.52;;;;;;;9.47;77.31;95550.25;5026174;28;20408;-74
2021/11/05 04:31:23;;;;;;;30.48;17.10;;;;;;;9.61;76.43;95577.34;5027453;28;20046;-74
2021/11/05 04:33:48;;;;;;;28.55;17.25;;;;;;;9.55;76.87;95570.81;5025858;28;20025;-77
2021/11/05 04:36:15;;;;;;;31.13;17.50;;;;;;;9.52;77.34;95577.34;5010306;28;20392;-76
2021/11/05 04:38:41;;;;;;;31.92;17.55;;;;;;;9.56;76.36;95577.84;5026601;28;20038;-75
2021/11/05 04:41:06;;;;;;;26.98;17.45;;;;;;;9.62;75.68;95589.75;5010312;28;20033;-74
2021/11/05 04:43:32;;;;;;;28.35;16.83;;;;;;;9.56;76.64;95593.09;5026213;28;20025;-74
2021/11/05 04:45:57;;;;;;;30.05;16.63;;;;;;;9.46;77.16;95572.66;5027292;28;20033;-75
2021/11/05 04:48:23;;;;;;;26.13;17.30;;;;;;;9.52;75.06;95612.16;5027233;28;20079;-75
2021/11/05 04:50:48;;;;;;;33.08;18.40;;;;;;;9.46;76.98;95583.34;5008916;28;20061;-75
2021/11/05 04:53:14;;;;;;;29.70;18.50;;;;;;;9.61;76.01;95607.63;5009813;28;20499;-74
2021/11/05 04:55:39;;;;;;;30.20;17.45;;;;;;;9.47;78.52;95614.50;5008433;28;20087;-75
2021/11/05 04:58:05;;;;;;;31.70;19.60;;;;;;;9.48;77.48;95585.91;5009823;28;20025;-74
2021/11/05 05:00:30;;;;;;;38.78;18.92;;;;;;;9.54;77.17;95621.88;5024885;28;20014;-76
2021/11/05 05:02:56;;;;;;;46.97;25.23;;;;;;;9.47;77.29;95595.75;5027479;28;20465;-74
2021/11/05 05:05:22;;;;;;;42.97;24.00;;;;;;;9.53;76.86;95631.72;5022099;28;20072;-75
2021/11/05 05:07:47;;;;;;;43.67;22.92;;;;;;;9.47;77.45;95603.78;5029704;28;20491;-74
2021/11/05 05:10:13;;;;;;;41.92;22.83;;;;;;;9.46;77.81;95634.22;5029486;28;20066;-74
2021/11/05 05:12:39;;;;;;;37.58;22.05;;;;;;;9.43;78.52;95631.06;5018786;28;20472;-76
2021/11/05 05:15:05;;;;;;;36.08;21.17;;;;;;;9.42;76.81;95614.16;5039301;28;20573;-76
2021/11/05 05:17:30;;;;;;;33.70;18.45;;;;;;;9.43;75.32;95645.25;5032972;28;20033;-75
2021/11/05 05:19:56;;;;;;;28.08;15.43;;;;;;;9.44;74.82;95646.97;5025972;28;20247;-74
2021/11/05 05:22:21;;;;;;;23.83;13.10;;;;;;;9.37;73.59;95644.09;5035963;28;20446;-74
2021/11/05 05:24:47;;;;;;;25.75;13.73;;;;;;;9.38;73.46;95659.16;5033199;28;20025;-73
2021/11/05 05:27:13;;;;;;;25.92;13.20;;;;;;;9.32;74.75;95651.78;5035827;28;20111;-74
2021/11/05 05:29:38;;;;;;;25.02;13.77;;;;;;;9.31;75.13;95657.28;5036283;28;20025;-75
2021/11/05 05:32:04;;;;;;;26.08;14.27;;;;;;;9.28;76.74;95659.28;5038238;28;20048;-74
2021/11/05 05:34:29;;;;;;;25.17;15.35;;;;;;;9.35;76.01;95672.84;5015495;28;20032;-74
2021/11/05 05:36:55;;;;;;;24.65;14.90;;;;;;;9.33;76.52;95668.69;5033768;28;20021;-75
2021/11/05 05:39:20;;;;;;;27.80;16.08;;;;;;;9.36;76.70;95673.69;5032676;28;20037;-74
2021/11/05 05:41:46;;;;;;;25.20;14.93;;;;;;;9.42;77.60;95650.78;5044311;28;20029;-74
2021/11/05 05:44:11;;;;;;;26.98;15.43;;;;;;;9.44;77.65;95644.28;5033333;28;20036;-75
2021/11/05 05:46:37;;;;;;;30.00;16.15;;;;;;;9.48;77.42;95661.69;5033407;28;20029;-74
2021/11/05 05:49:02;;;;;;;30.58;17.15;;;;;;;9.47;76.88;95633.25;5034608;28;20499;-75
2021/11/05 05:51:32;;;;;;;25.77;16.27;;;;;;;9.43;77.04;95652.47;5032667;28;20025;-75
2021/11/05 05:53:57;;;;;;;30.08;15.73;;;;;;;9.47;77.44;95645.78;5036513;28;20030;-75
2021/11/05 05:56:23;;;;;;;31.90;18.02;;;;;;;9.47;77.56;95651.97;5044260;28;20033;-75
2021/11/05 05:58:48;;;;;;;33.80;17.10;;;;;;;9.60;76.85;95661.38;5017940;28;20025;-77
2021/11/05 06:01:14;;;;;;;26.23;16.23;;;;;;;9.63;77.40;95655.69;5036144;28;20099;-74
2021/11/05 06:03:39;;;;;;;32.35;17.90;;;;;;;9.69;76.86;95654.19;5035441;28;20041;-74
2021/11/05 06:06:05;;;;;;;30.40;17.70;;;;;;;9.78;76.51;95663.91;5038166;28;20021;-75
2021/11/05 06:08:30;;;;;;;26.98;16.20;;;;;;;10.01;74.98;95672.09;5043148;28;20029;-75
2021/11/05 06:10:57;;;;;;;28.67;16.30;;;;;;;10.08;74.97;95660.72;5034836;28;20033;-74
2021/11/05 06:13:23;;;;;;;29.50;15.95;;;;;;;10.15;74.82;95656.38;5039976;28;20036;-77
2021/11/05 06:15:48;;;;;;;30.42;18.05;;;;;;;10.27;74.15;95665.72;5041107;28;20032;-74
2021/11/05 06:18:14;;;;;;;31.88;20.30;;;;;;;10.41;74.18;95662.53;5038088;28;20087;-74
2021/11/05 06:20:39;;;;;;;37.78;21.25;;;;;;;10.51;74.31;95663.22;5030681;28;20033;-75
2021/11/05 06:23:05;;;;;;;49.22;26.98;;;;;;;10.67;74.29;95651.63;5058623;28;20127;-75
2021/11/05 06:25:30;;;;;;;43.72;27.58;;;;;;;10.86;73.78;95668.31;5045016;28;20518;-75
2021/11/05 06:27:55;;;;;;;40.55;25.65;;;;;;;11.10;73.43;95653.13;5044982;28;20025;-75
2021/11/05 06:30:21;;;;;;;34.55;23.27;;;;;;;11.17;73.49;95648.72;5042669;28;20032;-74
2021/11/05 06:32:46;;;;;;;37.53;22.25;;;;;;;11.37;72.90;95664.41;5043896;28;20025;-72
2021/11/05 06:35:12;;;;;;;35.92;23.00;;;;;;;11.48;72.34;95660.47;5042658;28;20581;-73
2021/11/05 06:37:37;;;;;;;32.58;21.10;;;;;;;11.51;72.24;95660.09;5043777;28;20025;-73
2021/11/05 06:40:08;;;;;;;33.78;20.52;;;;;;;11.53;71.99;95676.88;5041525;28;20059;-74
2021/11/05 06:42:34;;;;;;;34.55;20.23;;;;;;;11.57;71.80;95662.09;5043153;28;20040;-74
2021/11/05 06:45:00;;;;;;;32.58;21.08;;;;;;;11.73;71.85;95663.00;5037727;28;20029;-75
2021/11/05 06:47:25;;;;;;;41.30;26.13;;;;;;;11.69;72.61;95653.63;5037494;28;20502;-75
2021/11/05 06:49:50;;;;;;;38.22;24.75;;;;;;;11.76;72.33;95651.91;5020397;28;20502;-73
2021/11/05 06:52:16;;;;;;;47.92;29.02;;;;;;;11.95;71.98;95644.34;5034003;28;20029;-74
2021/11/05 06:54:41;;;;;;;55.08;33.50;;;;;;;12.03;71.74;95655.03;5043887;28;20029;-74
2021/11/05 06:57:07;;;;;;;54.35;34.53;;;;;;;12.08;71.90;95665.28;5020476;28;20539;-74
2021/11/05 06:59:33;;;;;;;56.45;35.75;;;;;;;12.22;71.54;95659.13;5019473;28;20411;-74
2021/11/05 07:01:59;;;;;;;66.32;39.63;;;;;;;12.39;70.86;95672.44;5037354;28;20330;-82
2021/11/05 07:04:25;;;;;;;72.00;40.28;;;;;;;12.55;70.66;95681.34;5043381;28;20057;-78
2021/11/05 07:06:53;;;;;;;62.40;37.83;;;;;;;12.60;70.70;95673.56;5038044;28;20021;-79
2021/11/05 07:09:18;;;;;;;52.28;34.72;;;;;;;12.68;70.92;95664.56;5039436;28;20021;-78
2021/11/05 07:11:45;;;;;;;53.60;34.55;;;;;;;12.83;70.35;95689.63;5023417;28;20060;-78
2021/11/05 07:14:10;;;;;;;52.08;35.38;;;;;;;13.06;70.10;95671.72;5043640;28;20025;-79
2021/11/05 07:16:36;;;;;;;51.65;34.58;;;;;;;13.18;69.35;95686.38;5042762;28;20070;-81
2021/11/05 07:19:03;;;;;;;51.55;34.45;;;;;;;13.07;69.96;95686.84;5044765;28;20044;-79
2021/11/05 07:21:28;;;;;;;52.78;35.40;;;;;;;13.18;70.25;95682.84;5043538;28;20419;-79
2021/11/05 07:24:01;;;;;;;51.25;33.15;;;;;;;13.20;69.28;95689.72;5046365;28;20045;-79
2021/11/05 07:26:35;;;;;;;47.20;32.00;;;;;;;13.14;70.20;95677.00;5045937;28;20025;-80
2021/11/05 07:29:04;;;;;;;49.67;33.80;;;;;;;13.18;69.60;95677.47;5031353;28;20469;-79
2021/11/05 07:31:30;;;;;;;46.92;32.97;;;;;;;13.19;70.30;95681.81;5025721;28;20064;-79
2021/11/05 07:33:55;;;;;;;49.30;32.00;;;;;;;13.22;70.03;95671.50;5043744;28;20403;-79
2021/11/05 07:36:21;;;;;;;46.03;31.60;;;;;;;13.26;70.48;95671.97;5037386;28;20056;-80
2021/11/05 07:38:46;;;;;;;47.90;31.85;;;;;;;13.29;69.73;95665.38;5043388;28;20021;-79
2021/11/05 07:41:12;;;;;;;46.33;31.42;;;;;;;13.30;70.10;95662.47;5046373;28;20025;-79
2021/11/05 07:43:37;;;;;;;48.08;31.08;;;;;;;13.29;70.02;95666.22;5045577;28;20074;-79
2021/11/05 07:46:03;;;;;;;47.10;30.92;;;;;;;13.33;69.82;95666.69;5042831;28;20017;-80
2021/11/05 07:48:28;;;;;;;44.47;29.85;;;;;;;13.39;69.84;95679.38;5035011;28;20029;-80
2021/11/05 07:50:54;;;;;;;44.58;30.00;;;;;;;13.51;69.64;95679.75;5040517;28;20036;-79
2021/11/05 07:53:19;;;;;;;46.97;30.20;;;;;;;13.61;69.31;95671.38;5041187;28;20037;-80
2021/11/05 07:55:46;;;;;;;49.63;31.23;;;;;;;13.62;69.64;95675.75;5030703;28;20021;-79
2021/11/05 07:58:12;;;;;;;42.53;29.15;;;;;;;13.57;69.57;95672.78;5046701;28;20553;-79
2021/11/05 08:00:37;;;;;;;46.45;29.90;;;;;;;13.58;69.72;95663.66;5040595;28;20032;-80
2021/11/05 08:03:02;;;;;;;42.30;28.02;;;;;;;13.64;68.96;95670.19;5045515;28;20079;-80
2021/11/05 08:05:28;;;;;;;39.65;28.38;;;;;;;13.62;69.25;95678.44;5046497;28;20025;-81
2021/11/05 08:07:53;;;;;;;44.50;28.70;;;;;;;13.63;69.02;95661.25;5040790;28;20028;-79
2021/11/05 08:10:21;;;;;;;41.45;27.58;;;;;;;13.79;68.74;95665.56;5041758;28;20029;-79
2021/11/05 08:12:51;;;;;;;44.08;27.95;;;;;;;13.95;68.91;95653.69;5040462;28;20108;-79
2021/11/05 08:15:18;;;;;;;42.55;27.85;;;;;;;14.14;68.89;95670.22;5035956;28;20616;-79
2021/11/05 08:17:44;;;;;;;40.03;27.67;;;;;;;14.29;67.93;95658.53;5035534;28;20044;-79
2021/11/05 08:20:11;;;;;;;42.35;27.13;;;;;;;14.43;67.48;95657.59;5037002;28;20483;-79
2021/11/05 08:22:36;;;;;;;40.30;27.13;;;;;;;14.54;67.19;95668.91;5037135;28;20067;-79
2021/11/05 08:25:02;;;;;;;35.10;23.35;;;;;;;14.70;66.39;95660.50;5038261;28;20488;-80
2021/11/05 08:27:28;;;;;;;36.47;23.38;;;;;;;14.90;65.74;95659.81;5034406;28;20361;-79
2021/11/05 08:29:53;;;;;;;34.67;22.55;;;;;;;14.92;65.56;95646.97;5039154;28;20025;-79
2021/11/05 08:32:19;;;;;;;33.88;21.95;;;;;;;14.96;65.75;95655.47;5038253;28;20680;-79
2021/11/05 08:34:45;;;;;;;36.33;22.42;;;;;;;15.02;65.71;95659.25;5033761;28;20083;-80
2021/11/05 08:37:11;;;;;;;38.00;22.08;;;;;;;15.12;66.09;95651.63;5041400;28;20065;-79
2021/11/05 08:39:36;;;;;;;38.45;20.83;;;;;;;15.17;65.48;95659.97;5041180;28;20048;-80
2021/11/05 08:42:02;;;;;;;33.08;19.95;;;;;;;15.27;65.68;95653.34;5044854;28;20407;-79
2021/11/05 08:44:30;;;;;;;33.88;19.83;;;;;;;15.38;65.52;95662.78;5039840;28;20025;-79
2021/11/05 08:46:55;;;;;;;35.95;19.63;;;;;;;15.49;64.63;95654.06;5038894;28;20052;-79
2021/11/05 08:49:22;;;;;;;31.25;18.27;;;;;;;15.54;64.36;95653.47;5045345;28;20037;-80
2021/11/05 08:51:48;;;;;;;29.13;18.00;;;;;;;15.65;64.52;95666.38;5035523;28;20029;-80
2021/11/05 08:54:13;;;;;;;31.33;18.75;;;;;;;15.78;64.32;95653.94;5036266;28;20036;-80
2021/11/05 08:56:39;;;;;;;31.25;17.42;;;;;;;15.87;64.13;95668.94;5037118;28;20391;-80
2021/11/05 08:59:04;;;;;;;30.08;16.02;;;;;;;16.00;63.63;95653.78;5006364;28;20072;-79
2021/11/05 09:01:30;;;;;;;27.23;14.63;;;;;;;16.06;62.97;95652.97;5036662;28;20028;-81
2021/11/05 09:03:56;;;;;;;28.25;15.30;;;;;;;16.14;62.59;95658.19;5026841;28;20036;-79
2021/11/05 09:06:21;;;;;;;24.17;15.13;;;;;;;16.26;62.33;95649.44;5034261;28;20042;-79
2021/11/05 09:08:49;;;;;;;25.77;14.68;;;;;;;16.31;62.60;95645.06;5039486;28;20038;-79
2021/11/05 09:11:14;;;;;;;26.70;13.95;;;;;;;16.44;62.77;95656.97;5034444;28;20037;-79
2021/11/05 09:13:40;;;;;;;20.98;13.25;;;;;;;16.60;62.14;95644.03;5044746;28;20101;-80
2021/11/05 09:16:05;;;;;;;20.77;13.23;;;;;;;16.68;62.07;95639.22;5039743;28;20032;-80
2021/11/05 09:18:31;;;;;;;27.13;14.40;;;;;;;16.87;61.73;95650.25;5034991;28;20040;-78
2021/11/05 09:20:57;;;;;;;21.90;14.32;;;;;;;16.97;60.71;95648.97;5037011;28;20036;-80
2021/11/05 09:23:24;;;;;;;21.60;13.15;;;;;;;17.07;60.84;95646.66;5036265;28;20119;-80
2021/11/05 09:25:50;;;;;;;20.55;12.55;;;;;;;17.16;60.08;95636.44;5049223;28;20028;-79
2021/11/05 09:28:16;;;;;;;24.35;12.50;;;;;;;17.31;59.17;95649.72;5042716;28;20032;-78
2021/11/05 09:30:41;;;;;;;29.25;13.43;;;;;;;17.33;59.41;95636.78;5044302;28;20423;-78
2021/11/05 09:33:06;;;;;;;19.33;12.23;;;;;;;17.41;59.36;95633.81;5043285;28;20033;-81
2021/11/05 09:35:32;;;;;;;22.95;11.95;;;;;;;17.52;58.85;95628.78;5044538;28;20112;-81
2021/11/05 09:37:57;;;;;;;20.98;12.00;;;;;;;17.57;58.83;95626.25;5045417;28;20033;-80
2021/11/05 09:40:26;;;;;;;17.15;11.43;;;;;;;17.66;59.05;95635.81;5043943;28;20025;-79
2021/11/05 09:42:53;;;;;;;23.13;11.63;;;;;;;17.71;58.72;95627.00;5044080;28;20048;-80
2021/11/05 09:45:19;;;;;;;25.15;11.32;;;;;;;17.82;58.94;95640.91;5044002;28;20021;-80
2021/11/05 09:47:44;;;;;;;20.52;11.02;;;;;;;17.85;58.44;95619.63;5043691;28;20029;-80
2021/11/05 09:50:11;;;;;;;19.52;8.98;;;;;;;17.94;58.09;95624.78;5042756;28;20461;-80
2021/11/05 09:52:38;;;;;;;16.38;8.45;;;;;;;17.99;57.67;95628.50;5045422;28;20021;-80
2021/11/05 09:55:04;;;;;;;19.90;9.38;;;;;;;18.01;57.42;95620.13;5044141;28;20032;-80
2021/11/05 09:57:29;;;;;;;19.10;8.27;;;;;;;18.09;58.11;95605.47;5043421;28;20526;-80
2021/11/05 09:59:56;;;;;;;22.38;8.82;;;;;;;18.18;58.61;95615.03;5044600;28;20025;-80
2021/11/05 10:02:22;;;;;;;16.92;8.65;;;;;;;18.26;58.35;95613.94;5044382;28;20064;-79
2021/11/05 10:04:48;;;;;;;20.20;7.97;;;;;;;18.37;57.53;95615.09;5043912;28;20025;-79
2021/11/05 10:07:13;;;;;;;20.77;7.85;;;;;;;18.38;57.42;95603.16;5040804;28;20033;-79
2021/11/05 10:09:43;;;;;;;15.38;8.02;;;;;;;18.46;56.96;95593.94;5031401;28;20417;-80
2021/11/05 10:12:16;;;;;;;15.48;7.85;;;;;;;18.51;56.71;95585.91;5021388;28;20033;-79
2021/11/05 10:14:43;;;;;;;20.88;7.25;;;;;;;18.57;56.87;95601.31;5023413;28;20034;-78
2021/11/05 10:17:10;;;;;;;17.60;7.40;;;;;;;18.59;56.42;95598.38;5024224;28;20045;-76
2021/11/05 10:19:52;;;;;;;18.98;8.45;;;;;;;18.69;56.52;95582.41;5024344;28;20036;-79
2021/11/05 10:22:56;;;;;;;16.88;8.30;;;;;;;18.81;56.68;95598.81;5025510;28;20433;-79
2021/11/05 10:25:31;;;;;;;16.83;7.85;;;;;;;18.93;56.19;95581.72;5022799;28;20202;-78
2021/11/05 10:28:03;;;;;;;11.45;6.93;;;;;;;19.06;55.59;95587.00;5025172;28;20045;-78
2021/11/05 10:30:29;;;;;;;12.52;6.80;;;;;;;19.09;54.79;95573.00;5024708;28;20121;-78
2021/11/05 10:32:56;;;;;;;20.50;8.10;;;;;;;19.13;54.24;95557.91;5025367;28;20032;-79
2021/11/05 10:35:21;;;;;;;15.15;6.63;;;;;;;19.17;53.98;95554.72;5029594;28;20040;-78
2021/11/05 10:37:47;;;;;;;13.07;6.82;;;;;;;19.32;53.56;95562.47;5010165;28;20029;-78
2021/11/05 10:40:12;;;;;;;18.30;8.25;;;;;;;19.45;53.18;95569.63;5013979;28;20021;-79
2021/11/05 10:42:45;;;;;;;19.67;8.27;;;;;;;19.52;52.99;95554.06;5026708;28;20083;-78
2021/11/05 10:45:17;;;;;;;15.27;7.15;;;;;;;19.58;52.74;95558.56;5040944;28;20407;-78
2021/11/05 10:48:02;;;;;;;16.98;7.15;;;;;;;19.68;52.29;95562.63;5047549;28;20032;-79
2021/11/05 10:50:36;;;;;;;16.92;7.35;;;;;;;19.79;52.09;95555.53;5042075;28;20033;-79
2021/11/05 10:53:16;;;;;;;16.20;7.25;;;;;;;19.91;52.34;95550.13;5039967;28;20028;-79
2021/11/05 10:55:48;;;;;;;12.85;6.40;;;;;;;19.99;51.83;95556.06;5037903;28;20041;-77
2021/11/05 10:58:19;;;;;;;19.20;7.57;;;;;;;20.10;51.29;95551.72;5040010;28;20468;-79
2021/11/05 11:00:45;;;;;;;20.80;7.03;;;;;;;20.19;51.33;95543.22;5040883;28;20041;-77
2021/11/05 11:03:31;;;;;;;18.85;7.57;;;;;;;20.20;51.21;95545.69;5035587;28;20033;-76
2021/11/05 11:06:18;;;;;;;18.05;6.70;;;;;;;20.33;51.83;95546.56;5048530;28;20471;-76
2021/11/05 11:08:45;;;;;;;17.70;6.53;;;;;;;20.40;50.93;95549.97;5048037;28;20496;-76
2021/11/05 11:11:20;;;;;;;13.85;6.40;;;;;;;20.48;51.09;95546.91;5045576;28;20052;-76
2021/11/05 11:13:48;;;;;;;13.35;6.38;;;;;;;20.64;50.35;95549.97;5039418;28;20143;-76
2021/11/05 11:16:36;;;;;;;11.10;5.70;;;;;;;20.79;49.26;95545.91;5043623;28;20449;-77
2021/11/05 11:19:04;;;;;;;16.27;6.28;;;;;;;20.93;49.83;95543.78;5040576;28;20035;-79